.
WxDataArchive / Data Records for 2008-02-24
2008-02-23 February 2008 2008-02-25

Data Records for Sunday, 24 February 2008

Time	Temp	Chill	HIndex	Humid	Dewpt	 Wind 	HiWind	WindDir	Rain 	Barom 
-----	----	-----	------	-----	-----	------	------	-------	-----	----- 
00:00	18.4	18.4	18.4	88	15.5	0	0	---	0.00	30.175 
00:05	18.6	18.6	18.6	88	15.6	0	0	---	0.00	30.170 
00:10	18.6	18.6	18.6	88	15.6	0	0	---	0.00	30.169 
00:15	18.6	18.6	18.6	89	15.9	0	0	---	0.00	30.167 
00:20	18.6	18.6	18.6	89	15.9	0	0	---	0.00	30.168 
00:25	18.4	18.4	18.4	89	15.7	0	0	---	0.00	30.169 
00:30	18.4	18.4	18.4	89	15.7	0	0	---	0.00	30.168 
00:35	18.3	18.3	18.3	89	15.6	0	0	---	0.00	30.169 
00:40	18.3	18.3	18.3	89	15.6	0	0	---	0.00	30.166 
00:45	18.1	18.1	18.1	89	15.4	0	0	---	0.00	30.166 
00:50	18.1	18.1	18.1	89	15.4	0	0	---	0.00	30.164 
00:55	18.0	18.0	18.0	89	15.3	0	0	---	0.00	30.162 
01:00	17.8	17.8	17.8	89	15.1	0	0	---	0.00	30.159 
01:05	17.5	17.5	17.5	89	14.8	0	0	---	0.00	30.156 
01:10	17.3	17.3	17.3	89	14.6	0	0	---	0.00	30.155 
01:15	17.2	17.2	17.2	89	14.5	0	0	---	0.00	30.154 
01:20	17.0	17.0	17.0	89	14.3	0	0	---	0.00	30.154 
01:25	17.0	17.0	17.0	89	14.3	0	0	---	0.00	30.155 
01:30	17.0	17.0	17.0	89	14.3	0	0	---	0.00	30.156 
01:35	16.9	16.9	16.9	89	14.2	0	0	---	0.00	30.159 
01:40	16.9	16.9	16.9	89	14.2	0	0	---	0.00	30.162 
01:45	16.7	16.7	16.7	89	14.0	0	0	---	0.00	30.165 
01:50	16.5	16.5	16.5	89	13.8	0	0	---	0.00	30.167 
01:55	16.5	16.5	16.5	89	13.8	0	0	---	0.00	30.168 
02:00	16.4	16.4	16.4	89	13.7	0	0	---	0.00	30.169 
02:05	16.2	16.2	16.2	89	13.5	0	0	---	0.00	30.166 
02:10	16.1	16.1	16.1	89	13.4	0	0	---	0.00	30.164 
02:15	15.9	15.9	15.9	89	13.2	0	0	---	0.00	30.165 
02:20	15.9	15.9	15.9	89	13.2	0	0	---	0.00	30.167 
02:25	16.1	16.1	16.1	90	13.7	0	0	---	0.00	30.166 
02:30	16.2	16.2	16.2	90	13.8	0	0	---	0.00	30.167 
02:35	16.2	16.2	16.2	90	13.8	0	0	---	0.00	30.167 
02:40	16.1	16.1	16.1	89	13.4	0	0	---	0.00	30.165 
02:45	16.1	16.1	16.1	89	13.4	0	0	---	0.00	30.164 
02:50	15.9	15.9	15.9	89	13.2	0	0	---	0.00	30.162 
02:55	15.9	15.9	15.9	89	13.2	0	0	---	0.00	30.160 
03:00	15.7	15.7	15.7	89	13.0	0	0	---	0.00	30.159 
03:05	15.9	15.9	15.9	90	13.5	0	0	---	0.00	30.159 
03:10	15.9	15.9	15.9	90	13.5	0	0	---	0.00	30.158 
03:15	15.9	15.9	15.9	89	13.2	0	0	---	0.00	30.158 
03:20	15.7	15.7	15.7	89	13.0	0	0	---	0.00	30.158 
03:25	15.7	15.7	15.7	89	13.0	0	0	---	0.00	30.155 
03:30	15.7	15.7	15.7	89	13.0	0	0	---	0.00	30.158 
03:35	15.6	15.6	15.6	89	12.9	0	0	---	0.00	30.155 
03:40	15.4	15.4	15.4	89	12.8	0	0	---	0.00	30.152 
03:45	15.4	15.4	15.4	89	12.8	0	0	---	0.00	30.154 
03:50	15.2	15.2	15.2	89	12.6	0	0	---	0.00	30.153 
03:55	14.9	14.9	14.9	89	12.3	0	0	---	0.00	30.152 
04:00	14.8	14.8	14.8	89	12.2	0	0	---	0.00	30.150 
04:05	14.8	14.8	14.8	89	12.2	0	0	---	0.00	30.153 
04:10	14.6	14.6	14.6	89	12.0	0	0	---	0.00	30.154 
04:15	14.6	14.6	14.6	89	12.0	0	0	---	0.00	30.155 
04:20	14.6	14.6	14.6	89	12.0	0	0	---	0.00	30.156 
04:25	14.4	14.4	14.4	88	11.5	0	0	---	0.00	30.158 
04:30	14.3	14.3	14.3	88	11.4	0	0	---	0.00	30.160 
04:35	14.1	14.1	14.1	88	11.2	0	0	---	0.00	30.164 
04:40	14.0	14.0	14.0	88	11.1	0	0	---	0.00	30.169 
04:45	14.0	14.0	14.0	88	11.1	0	0	---	0.00	30.170 
04:50	14.0	14.0	14.0	88	11.1	0	0	---	0.00	30.169 
04:55	14.1	14.1	14.1	89	11.5	0	0	---	0.00	30.170 
05:00	14.3	14.3	14.3	89	11.7	0	0	---	0.00	30.171 
05:05	14.6	14.6	14.6	89	12.0	0	0	---	0.00	30.174 
05:10	14.6	14.6	14.6	89	12.0	0	0	---	0.00	30.173 
05:15	14.6	14.6	14.6	89	12.0	0	0	---	0.00	30.173 
05:20	14.4	14.4	14.4	89	11.8	0	0	---	0.00	30.173 
05:25	14.4	14.4	14.4	89	11.8	0	0	---	0.00	30.176 
05:30	14.3	14.3	14.3	89	11.7	0	0	---	0.00	30.176 
05:35	14.3	14.3	14.3	89	11.7	0	0	---	0.00	30.177 
05:40	14.6	14.6	14.6	90	12.2	0	1	248	0.00	30.181 
05:45	15.4	15.4	15.4	90	13.0	0	1	248	0.00	30.179 
05:50	16.4	16.4	16.4	91	14.2	0	2	248	0.00	30.184 
05:55	17.0	17.0	17.0	91	14.8	0	3	248	0.00	30.178 
06:00	17.3	17.3	17.3	90	14.9	0	1	248	0.00	30.181 
06:05	17.3	17.3	17.3	90	14.9	0	1	248	0.00	30.182 
06:10	17.3	17.3	17.3	90	14.9	0	1	248	0.00	30.182 
06:15	17.3	17.3	17.3	89	14.6	0	1	248	0.00	30.180 
06:20	17.2	17.2	17.2	89	14.5	0	1	248	0.00	30.180 
06:25	16.9	16.9	16.9	89	14.2	0	0	---	0.00	30.179 
06:30	16.7	16.7	16.7	88	13.8	0	0	---	0.00	30.176 
06:35	16.5	16.5	16.5	88	13.6	0	0	---	0.00	30.175 
06:40	16.2	16.2	16.2	88	13.3	0	0	---	0.00	30.174 
06:45	15.9	15.9	15.9	88	13.0	0	0	---	0.00	30.174 
06:50	15.6	15.6	15.6	88	12.7	0	0	---	0.00	30.177 
06:55	15.2	15.2	15.2	87	12.0	0	0	---	0.00	30.178 
07:00	14.9	14.9	14.9	87	11.7	0	0	---	0.00	30.176 
07:05	14.8	14.8	14.8	87	11.6	0	0	---	0.00	30.177 
07:10	14.6	14.6	14.6	88	11.7	0	0	---	0.00	30.177 
07:15	14.6	14.6	14.6	87	11.4	0	0	---	0.00	30.178 
07:20	14.3	14.3	14.3	87	11.2	0	0	---	0.00	30.179 
07:25	14.1	14.1	14.1	87	11.0	0	0	---	0.00	30.181 
07:30	14.0	14.0	14.0	87	10.9	0	0	---	0.00	30.181 
07:35	14.0	14.0	14.0	87	10.9	0	0	---	0.00	30.179 
07:40	13.8	13.8	13.8	87	10.7	0	0	---	0.00	30.180 
07:45	13.8	13.8	13.8	87	10.7	0	0	---	0.00	30.178 
07:50	14.0	14.0	14.0	87	10.9	0	0	---	0.00	30.179 
07:55	14.0	14.0	14.0	88	11.1	0	0	---	0.00	30.177 
08:00	14.1	14.1	14.1	88	11.2	0	0	---	0.00	30.178 
08:05	14.4	14.4	14.4	88	11.5	0	0	---	0.00	30.178 
08:10	15.1	15.1	15.1	89	12.5	0	0	---	0.00	30.177 
08:15	16.1	16.1	16.1	90	13.7	0	0	---	0.00	30.177 
08:20	16.9	16.9	16.9	90	14.5	0	0	---	0.00	30.177 
08:25	17.5	17.5	17.5	90	15.1	0	0	---	0.00	30.178 
08:30	18.6	18.6	18.6	91	16.4	0	1	248	0.00	30.176 
08:35	19.2	19.2	19.2	90	16.8	0	1	248	0.00	30.176 
08:40	19.9	19.9	19.9	90	17.5	0	1	248	0.00	30.178 
08:45	20.2	20.2	20.2	89	17.5	0	1	248	0.00	30.179 
08:50	20.5	20.5	20.5	89	17.8	0	3	248	0.00	30.179 
08:55	21.0	21.0	21.0	89	18.3	0	3	248	0.00	30.177 
09:00	21.6	21.6	21.6	88	18.6	0	2	248	0.00	30.175 
09:05	22.2	22.2	22.2	87	18.9	0	1	248	0.00	30.176 
09:10	22.5	22.5	22.5	84	18.4	1	3	248	0.00	30.176 
09:15	23.0	23.0	23.0	81	18.1	1	3	248	0.00	30.175 
09:20	23.3	23.3	23.3	79	17.8	0	3	248	0.00	30.175 
09:25	23.8	23.8	23.8	77	17.7	0	2	248	0.00	30.171 
09:30	24.2	24.2	24.2	76	17.7	0	2	248	0.00	30.170 
09:35	24.8	24.8	24.8	75	18.0	0	2	248	0.00	30.172 
09:40	25.7	25.7	25.7	73	18.3	0	1	248	0.00	30.172 
09:45	27.0	27.0	27.0	71	18.9	0	1	248	0.00	30.169 
09:50	27.9	27.9	27.9	70	19.4	0	2	248	0.00	30.167 
09:55	28.7	28.7	28.7	65	18.4	0	3	248	0.00	30.166 
10:00	28.7	28.7	28.7	65	18.4	1	3	248	0.00	30.166 
10:05	28.8	28.8	28.8	65	18.5	0	2	248	0.00	30.167 
10:10	29.1	29.1	29.1	63	18.1	0	2	248	0.00	30.164 
10:15	29.4	29.4	29.4	63	18.4	0	2	248	0.00	30.162 
10:20	29.8	29.8	29.8	61	18.0	1	4	248	0.00	30.159 
10:25	29.7	29.7	29.7	60	17.5	2	5	248	0.00	30.158 
10:30	29.7	29.7	29.7	60	17.5	1	4	248	0.00	30.162 
10:35	29.7	29.7	29.7	59	17.1	2	5	248	0.00	30.162 
10:40	30.0	30.0	30.0	62	18.6	1	4	248	0.00	30.159 
10:45	30.6	30.6	30.6	61	18.8	2	4	248	0.00	30.155 
10:50	31.0	31.0	31.0	62	19.5	1	4	270	0.00	30.154 
10:55	31.6	31.6	31.6	61	19.7	1	4	248	0.00	30.151 
11:00	32.1	32.1	32.1	59	19.4	2	7	248	0.00	30.151 
11:05	32.1	32.1	32.1	60	19.8	2	5	248	0.00	30.153 
11:10	32.4	32.4	32.4	61	20.5	2	6	248	0.00	30.152 
11:15	32.5	32.5	32.5	61	20.6	1	4	202	0.00	30.150 
11:20	32.7	32.7	32.7	60	20.4	2	4	248	0.00	30.147 
11:25	32.4	32.4	32.4	60	20.1	2	7	248	0.00	30.145 
11:30	32.5	32.5	32.5	60	20.2	3	7	248	0.00	30.144 
11:35	32.5	32.5	32.5	59	19.8	2	6	248	0.00	30.140 
11:40	32.9	32.9	32.9	61	20.9	1	3	248	0.00	30.140 
11:45	33.7	33.7	33.7	61	21.7	1	2	270	0.00	30.136 
11:50	34.0	34.0	34.0	60	21.6	1	5	248	0.00	30.136 
11:55	34.1	34.1	34.1	60	21.7	2	6	248	0.00	30.136 
12:00	34.1	34.1	34.1	62	22.5	2	6	248	0.00	30.135 
12:05	34.3	34.3	34.3	62	22.7	2	5	248	0.00	30.133 
12:10	34.4	34.4	34.4	63	23.1	2	5	248	0.00	30.128 
12:15	34.1	34.1	34.1	62	22.5	2	5	248	0.00	30.128 
12:20	34.0	34.0	34.0	63	22.7	2	6	248	0.00	30.126 
12:25	34.0	34.0	34.0	65	23.5	2	6	248	0.00	30.123 
12:30	33.8	33.8	33.8	64	22.9	2	6	248	0.00	30.120 
12:35	33.4	33.4	33.4	65	22.9	2	6	270	0.00	30.119 
12:40	33.8	33.8	33.8	65	23.3	2	7	248	0.00	30.117 
12:45	34.1	34.1	34.1	65	23.6	2	4	248	0.00	30.115 
12:50	34.4	34.4	34.4	64	23.5	2	6	248	0.00	30.113 
12:55	34.4	34.4	34.4	64	23.5	2	6	248	0.00	30.108 
13:00	34.3	34.3	34.3	63	23.0	1	5	248	0.00	30.105 
13:05	34.4	34.4	34.4	63	23.1	1	4	248	0.00	30.106 
13:10	34.3	34.3	34.3	63	23.0	1	5	248	0.00	30.104 
13:15	34.3	34.3	34.3	63	23.0	2	4	248	0.00	30.100 
13:20	34.4	34.4	34.4	64	23.5	1	3	248	0.00	30.099 
13:25	34.6	34.6	34.6	63	23.3	1	5	248	0.00	30.093 
13:30	34.4	34.4	34.4	62	22.7	2	6	248	0.00	30.090 
13:35	34.1	34.1	34.1	62	22.5	2	6	270	0.00	30.087 
13:40	34.0	34.0	34.0	64	23.1	1	4	248	0.00	30.083 
13:45	34.7	34.7	34.7	64	23.8	1	3	0	0.00	30.077 
13:50	34.9	34.9	34.9	63	23.6	1	4	225	0.00	30.074 
13:55	35.2	35.2	35.2	63	23.9	2	5	248	0.00	30.074 
14:00	35.5	35.5	35.5	63	24.2	2	6	248	0.00	30.073 
14:05	35.5	35.5	35.5	62	23.8	2	7	292	0.00	30.070 
14:10	34.7	34.7	34.7	62	23.0	2	6	248	0.00	30.070 
14:15	34.9	34.9	34.9	64	24.0	2	5	248	0.00	30.064 
14:20	34.7	34.7	34.7	63	23.4	1	4	248	0.00	30.061 
14:25	34.4	34.4	34.4	62	22.7	2	5	248	0.00	30.058 
14:30	34.7	34.7	34.7	62	23.0	2	4	248	0.00	30.057 
14:35	35.0	35.0	35.0	63	23.7	1	3	248	0.00	30.055 
14:40	35.3	35.3	35.3	63	24.0	1	3	270	0.00	30.052 
14:45	35.3	35.3	35.3	62	23.6	1	4	270	0.00	30.048 
14:50	35.3	35.3	35.3	61	23.2	1	3	338	0.00	30.044 
14:55	35.5	35.5	35.5	61	23.4	2	6	338	0.00	30.045 
15:00	35.5	35.5	35.5	61	23.4	1	4	248	0.00	30.042 
15:05	35.6	35.6	35.6	60	23.1	2	7	315	0.00	30.043 
15:10	35.6	35.6	35.6	60	23.1	2	5	248	0.00	30.044 
15:15	35.9	35.9	35.9	59	23.0	2	5	248	0.00	30.044 
15:20	36.2	36.2	36.2	59	23.3	2	7	248	0.00	30.044 
15:25	36.6	36.6	36.6	58	23.2	2	9	248	0.00	30.040 
15:30	36.6	36.6	36.6	59	23.6	2	6	248	0.00	30.040 
15:35	36.5	36.5	36.5	59	23.6	3	6	248	0.00	30.040 
15:40	36.5	36.5	36.5	59	23.6	2	6	248	0.00	30.038 
15:45	36.5	36.5	36.5	59	23.6	3	7	248	0.00	30.037 
15:50	36.6	36.6	36.6	60	24.0	1	4	292	0.00	30.036 
15:55	36.2	36.2	36.2	59	23.3	3	7	248	0.00	30.040 
16:00	35.8	35.8	35.8	60	23.3	2	6	248	0.00	30.036 
16:05	35.6	35.6	35.6	61	23.5	1	3	292	0.00	30.036 
16:10	35.5	35.5	35.5	61	23.4	2	5	248	0.00	30.036 
16:15	35.8	35.8	35.8	61	23.7	1	4	248	0.00	30.033 
16:20	36.0	36.0	36.0	61	23.9	2	6	248	0.00	30.032 
16:25	35.9	35.9	35.9	60	23.4	1	4	248	0.00	30.037 
16:30	35.8	35.8	35.8	60	23.3	2	6	225	0.00	30.038 
16:35	35.5	35.5	35.5	61	23.4	3	6	270	0.00	30.038 
16:40	35.2	35.2	35.2	61	23.1	2	5	248	0.00	30.040 
16:45	35.0	35.0	35.0	62	23.3	1	3	292	0.00	30.040 
16:50	35.2	35.2	35.2	62	23.5	2	6	248	0.00	30.042 
16:55	35.0	35.0	35.0	62	23.3	2	7	248	0.00	30.041 
17:00	34.9	34.9	34.9	62	23.2	2	6	248	0.00	30.042 
17:05	34.7	34.7	34.7	63	23.4	1	5	248	0.00	30.038 
17:10	34.6	34.6	34.6	63	23.3	1	4	248	0.00	30.037 
17:15	34.1	34.1	34.1	64	23.2	2	7	248	0.00	30.037 
17:20	33.8	33.8	33.8	64	22.9	2	5	248	0.00	30.038 
17:25	33.5	33.5	33.5	65	23.0	2	4	248	0.00	30.038 
17:30	33.4	33.4	33.4	66	23.3	1	2	248	0.00	30.038 
17:35	33.2	33.2	33.2	66	23.1	2	7	248	0.00	30.038 
17:40	33.2	33.2	33.2	66	23.1	1	5	248	0.00	30.038 
17:45	33.1	33.1	33.1	66	23.0	1	4	248	0.00	30.039 
17:50	33.1	33.1	33.1	66	23.0	2	5	248	0.00	30.038 
17:55	32.9	32.9	32.9	66	22.8	1	4	248	0.00	30.036 
18:00	32.9	32.9	32.9	67	23.2	2	6	248	0.00	30.038 
18:05	32.8	32.8	32.8	67	23.1	1	5	248	0.00	30.041 
18:10	32.8	32.8	32.8	67	23.1	1	5	248	0.00	30.043 
18:15	32.7	32.7	32.7	67	23.0	2	5	248	0.00	30.042 
18:20	32.5	32.5	32.5	67	22.8	1	5	248	0.00	30.044 
18:25	32.4	32.4	32.4	69	23.4	1	4	248	0.00	30.042 
18:30	32.2	32.2	32.2	70	23.5	0	4	270	0.00	30.043 
18:35	31.8	31.8	31.8	71	23.5	1	3	248	0.00	30.045 
18:40	31.5	31.5	31.5	72	23.5	0	4	248	0.00	30.042 
18:45	31.3	31.3	31.3	73	23.7	1	5	248	0.00	30.043 
18:50	31.2	31.2	31.2	74	23.9	1	4	248	0.00	30.045 
18:55	31.0	31.0	31.0	74	23.7	1	4	248	0.00	30.046 
19:00	31.0	31.0	31.0	74	23.7	1	3	248	0.00	30.045 
19:05	30.9	30.9	30.9	74	23.6	0	3	225	0.00	30.048 
19:10	30.9	30.9	30.9	74	23.6	1	5	225	0.00	30.048 
19:15	30.9	30.9	30.9	75	23.9	0	3	225	0.00	30.049 
19:20	30.9	30.9	30.9	75	23.9	0	2	225	0.00	30.050 
19:25	30.9	30.9	30.9	75	23.9	1	3	248	0.00	30.049 
19:30	30.9	30.9	30.9	74	23.6	0	3	248	0.00	30.048 
19:35	30.9	30.9	30.9	74	23.6	0	3	248	0.00	30.047 
19:40	31.0	31.0	31.0	74	23.7	1	3	248	0.00	30.047 
19:45	31.0	31.0	31.0	73	23.4	0	4	248	0.00	30.047 
19:50	31.0	31.0	31.0	73	23.4	1	3	248	0.00	30.048 
19:55	31.2	31.2	31.2	73	23.6	1	6	248	0.00	30.048 
20:00	31.2	31.2	31.2	73	23.6	1	4	248	0.00	30.047 
20:05	31.2	31.2	31.2	73	23.6	1	5	248	0.00	30.034 
20:10	31.0	31.0	31.0	73	23.4	1	3	248	0.00	30.035 
20:15	31.0	31.0	31.0	73	23.4	1	4	248	0.00	30.032 
20:20	31.0	31.0	31.0	72	23.1	1	6	248	0.00	30.029 
20:25	31.0	31.0	31.0	72	23.1	2	5	248	0.00	30.030 
20:30	30.9	30.9	30.9	72	23.0	1	5	248	0.00	30.031 
20:35	30.9	30.9	30.9	72	23.0	1	3	248	0.00	30.032 
20:40	30.9	30.9	30.9	72	23.0	1	3	248	0.00	30.031 
20:45	30.9	30.9	30.9	72	23.0	1	4	248	0.00	30.030 
20:50	30.9	30.9	30.9	72	23.0	2	5	248	0.00	30.034 
20:55	30.9	30.9	30.9	71	22.6	2	6	248	0.00	30.032 
21:00	30.9	30.9	30.9	71	22.6	1	5	225	0.00	30.029 
21:05	30.7	30.7	30.7	72	22.8	2	5	248	0.00	30.024 
21:10	30.7	30.7	30.7	72	22.8	1	5	248	0.00	30.027 
21:15	30.7	30.7	30.7	72	22.8	1	5	248	0.00	30.026 
21:20	30.7	30.7	30.7	73	23.1	1	5	248	0.00	30.026 
21:25	30.6	30.6	30.6	71	22.3	1	3	248	0.00	30.028 
21:30	30.6	30.6	30.6	70	22.0	2	6	248	0.00	30.026 
21:35	30.6	30.6	30.6	70	22.0	2	5	248	0.00	30.026 
21:40	30.6	30.6	30.6	70	22.0	1	5	270	0.00	30.022 
21:45	30.6	30.6	30.6	70	22.0	1	5	248	0.00	30.018 
21:50	30.6	30.6	30.6	70	22.0	1	5	248	0.00	30.018 
21:55	30.4	30.4	30.4	70	21.8	1	3	248	0.00	30.019 
22:00	30.3	30.3	30.3	71	22.0	1	3	248	0.00	30.019 
22:05	30.3	30.3	30.3	71	22.0	0	2	225	0.00	30.015 
22:10	30.1	30.1	30.1	71	21.9	0	2	225	0.00	30.013 
22:15	30.1	30.1	30.1	71	21.9	0	2	248	0.00	30.014 
22:20	30.1	30.1	30.1	71	21.9	1	3	248	0.00	30.014 
22:25	30.1	30.1	30.1	71	21.9	1	4	248	0.00	30.012 
22:30	30.1	30.1	30.1	71	21.9	1	2	248	0.00	30.014 
22:35	30.1	30.1	30.1	71	21.9	1	5	248	0.00	30.010 
22:40	30.1	30.1	30.1	69	21.2	2	6	248	0.00	30.007 
22:45	30.1	30.1	30.1	69	21.2	1	4	248	0.00	30.004 
22:50	30.0	30.0	30.0	69	21.1	1	5	248	0.00	30.005 
22:55	30.0	30.0	30.0	69	21.1	1	5	248	0.00	30.003 
23:00	30.0	30.0	30.0	69	21.1	1	4	225	0.00	30.001 
23:05	30.0	30.0	30.0	69	21.1	2	4	248	0.00	29.998 
23:10	30.0	30.0	30.0	69	21.1	2	5	248	0.00	30.001 
23:15	30.0	30.0	30.0	69	21.1	2	4	248	0.00	29.999 
23:20	30.1	30.1	30.1	69	21.2	2	6	248	0.00	30.002 
23:25	30.1	30.1	30.1	70	21.5	1	4	248	0.00	29.999 
23:30	30.1	30.1	30.1	70	21.5	1	4	248	0.00	30.001 
23:35	30.1	30.1	30.1	70	21.5	2	7	270	0.00	29.998 
23:40	30.1	30.1	30.1	70	21.5	3	7	248	0.00	30.000 
23:45	30.1	30.1	30.1	70	21.5	3	6	248	0.00	30.002 
23:50	30.1	30.1	30.1	70	21.5	3	9	248	0.00	30.005 
23:55	30.1	25.9	30.1	70	21.5	4	12	248	0.00	30.007 

CoCoRaHS
IN-AL-39
A2 Web Hosting
Creative Commons License
GoDaddy
Look for:

loaded 2017-10-18 07:26:52 • last modified 2010-11-18 10:43:29
Privacy PolicyDisclaimer
• wx.awcolley.com is powered by PmWiki v.2002016 •
• all content (unless otherwise noted) © 2017 A W Colley